sensor_id;sensor_type;location;lat;lon;timestamp;P1;durP1;ratioP1;P2;durP2;ratioP2
29030;SDS011;16122;50.236;11.734;2022-08-21T00:02:17;4.17;;;3.40;;
29030;SDS011;16122;50.236;11.734;2022-08-21T00:04:46;3.20;;;2.93;;
29030;SDS011;16122;50.236;11.734;2022-08-21T00:07:12;3.73;;;3.33;;
29030;SDS011;16122;50.236;11.734;2022-08-21T00:09:39;3.03;;;2.83;;
29030;SDS011;16122;50.236;11.734;2022-08-21T00:12:05;3.27;;;2.63;;
29030;SDS011;16122;50.236;11.734;2022-08-21T00:14:31;3.10;;;2.67;;
29030;SDS011;16122;50.236;11.734;2022-08-21T00:17:00;3.17;;;2.97;;
29030;SDS011;16122;50.236;11.734;2022-08-21T00:19:26;3.77;;;3.47;;
29030;SDS011;16122;50.236;11.734;2022-08-21T00:21:52;3.00;;;2.80;;
29030;SDS011;16122;50.236;11.734;2022-08-21T00:24:19;3.63;;;2.90;;
29030;SDS011;16122;50.236;11.734;2022-08-21T00:26:47;3.43;;;2.90;;
29030;SDS011;16122;50.236;11.734;2022-08-21T00:29:14;3.00;;;2.80;;
29030;SDS011;16122;50.236;11.734;2022-08-21T00:31:41;3.30;;;3.10;;
29030;SDS011;16122;50.236;11.734;2022-08-21T00:34:08;2.80;;;2.60;;
29030;SDS011;16122;50.236;11.734;2022-08-21T00:36:35;3.10;;;2.63;;
29030;SDS011;16122;50.236;11.734;2022-08-21T00:39:01;2.80;;;2.60;;
29030;SDS011;16122;50.236;11.734;2022-08-21T00:41:28;3.10;;;2.90;;
29030;SDS011;16122;50.236;11.734;2022-08-21T00:43:54;3.00;;;2.80;;
29030;SDS011;16122;50.236;11.734;2022-08-21T00:46:20;2.90;;;2.70;;
29030;SDS011;16122;50.236;11.734;2022-08-21T00:48:47;3.50;;;2.80;;
29030;SDS011;16122;50.236;11.734;2022-08-21T00:51:17;2.87;;;2.67;;
29030;SDS011;16122;50.236;11.734;2022-08-21T00:53:54;3.03;;;2.53;;
29030;SDS011;16122;50.236;11.734;2022-08-21T00:56:23;3.43;;;3.13;;
29030;SDS011;16122;50.236;11.734;2022-08-21T00:58:50;2.80;;;2.60;;
29030;SDS011;16122;50.236;11.734;2022-08-21T01:01:18;2.80;;;2.60;;
29030;SDS011;16122;50.236;11.734;2022-08-21T01:03:45;5.20;;;2.70;;
29030;SDS011;16122;50.236;11.734;2022-08-21T01:06:11;2.73;;;2.53;;
29030;SDS011;16122;50.236;11.734;2022-08-21T01:08:37;2.63;;;2.43;;
29030;SDS011;16122;50.236;11.734;2022-08-21T01:11:04;2.60;;;2.40;;
29030;SDS011;16122;50.236;11.734;2022-08-21T01:13:31;3.20;;;3.00;;
29030;SDS011;16122;50.236;11.734;2022-08-21T01:16:00;2.87;;;2.30;;
29030;SDS011;16122;50.236;11.734;2022-08-21T01:18:30;2.43;;;2.27;;
29030;SDS011;16122;50.236;11.734;2022-08-21T01:23:28;2.70;;;2.50;;
29030;SDS011;16122;50.236;11.734;2022-08-21T01:25:54;2.70;;;2.50;;
29030;SDS011;16122;50.236;11.734;2022-08-21T01:28:21;2.50;;;2.30;;
29030;SDS011;16122;50.236;11.734;2022-08-21T01:30:48;2.73;;;2.53;;
29030;SDS011;16122;50.236;11.734;2022-08-21T01:33:20;2.77;;;2.57;;
29030;SDS011;16122;50.236;11.734;2022-08-21T01:35:49;2.90;;;2.70;;
29030;SDS011;16122;50.236;11.734;2022-08-21T01:38:15;2.40;;;2.30;;
29030;SDS011;16122;50.236;11.734;2022-08-21T01:40:42;2.23;;;2.10;;
29030;SDS011;16122;50.236;11.734;2022-08-21T01:43:09;2.63;;;2.43;;
29030;SDS011;16122;50.236;11.734;2022-08-21T01:45:35;2.83;;;2.63;;
29030;SDS011;16122;50.236;11.734;2022-08-21T01:48:01;2.37;;;2.17;;
29030;SDS011;16122;50.236;11.734;2022-08-21T01:50:27;2.33;;;2.23;;
29030;SDS011;16122;50.236;11.734;2022-08-21T01:52:54;2.43;;;2.33;;
29030;SDS011;16122;50.236;11.734;2022-08-21T01:55:20;2.47;;;2.27;;
29030;SDS011;16122;50.236;11.734;2022-08-21T01:57:46;2.53;;;2.33;;
29030;SDS011;16122;50.236;11.734;2022-08-21T02:00:14;2.60;;;2.40;;
29030;SDS011;16122;50.236;11.734;2022-08-21T02:02:41;2.20;;;2.10;;
29030;SDS011;16122;50.236;11.734;2022-08-21T02:05:09;2.67;;;2.47;;
29030;SDS011;16122;50.236;11.734;2022-08-21T02:07:40;2.60;;;2.40;;
29030;SDS011;16122;50.236;11.734;2022-08-21T02:10:08;2.27;;;2.17;;
29030;SDS011;16122;50.236;11.734;2022-08-21T02:12:35;2.37;;;2.20;;
29030;SDS011;16122;50.236;11.734;2022-08-21T02:15:02;2.43;;;2.23;;
29030;SDS011;16122;50.236;11.734;2022-08-21T02:17:37;2.57;;;2.37;;
29030;SDS011;16122;50.236;11.734;2022-08-21T02:20:21;1.80;;;1.70;;
29030;SDS011;16122;50.236;11.734;2022-08-21T02:22:59;2.30;;;2.20;;
29030;SDS011;16122;50.236;11.734;2022-08-21T02:25:26;2.27;;;2.13;;
29030;SDS011;16122;50.236;11.734;2022-08-21T02:27:53;2.57;;;2.37;;
29030;SDS011;16122;50.236;11.734;2022-08-21T02:30:21;2.43;;;2.30;;
29030;SDS011;16122;50.236;11.734;2022-08-21T02:32:49;2.03;;;1.93;;
29030;SDS011;16122;50.236;11.734;2022-08-21T02:35:15;3.10;;;2.00;;
29030;SDS011;16122;50.236;11.734;2022-08-21T02:37:42;2.10;;;2.00;;
29030;SDS011;16122;50.236;11.734;2022-08-21T02:40:18;2.30;;;2.10;;
29030;SDS011;16122;50.236;11.734;2022-08-21T02:42:46;2.33;;;2.23;;
29030;SDS011;16122;50.236;11.734;2022-08-21T02:45:13;2.10;;;1.90;;
29030;SDS011;16122;50.236;11.734;2022-08-21T02:47:40;2.83;;;2.63;;
29030;SDS011;16122;50.236;11.734;2022-08-21T02:50:12;2.13;;;2.03;;
29030;SDS011;16122;50.236;11.734;2022-08-21T02:52:38;1.93;;;1.80;;
29030;SDS011;16122;50.236;11.734;2022-08-21T02:55:04;2.97;;;2.77;;
29030;SDS011;16122;50.236;11.734;2022-08-21T02:57:30;2.20;;;2.10;;
29030;SDS011;16122;50.236;11.734;2022-08-21T02:59:57;2.10;;;1.90;;
29030;SDS011;16122;50.236;11.734;2022-08-21T03:02:23;2.17;;;2.07;;
29030;SDS011;16122;50.236;11.734;2022-08-21T03:04:50;2.13;;;1.90;;
29030;SDS011;16122;50.236;11.734;2022-08-21T03:07:16;2.10;;;2.00;;
29030;SDS011;16122;50.236;11.734;2022-08-21T03:09:42;2.37;;;2.17;;
29030;SDS011;16122;50.236;11.734;2022-08-21T03:12:08;1.90;;;1.80;;
29030;SDS011;16122;50.236;11.734;2022-08-21T03:14:33;2.47;;;2.27;;
29030;SDS011;16122;50.236;11.734;2022-08-21T03:16:59;2.27;;;2.17;;
29030;SDS011;16122;50.236;11.734;2022-08-21T03:19:25;2.30;;;2.10;;
29030;SDS011;16122;50.236;11.734;2022-08-21T03:21:51;2.50;;;2.30;;
29030;SDS011;16122;50.236;11.734;2022-08-21T03:24:17;2.43;;;2.23;;
29030;SDS011;16122;50.236;11.734;2022-08-21T03:26:43;2.00;;;1.90;;
29030;SDS011;16122;50.236;11.734;2022-08-21T03:29:09;2.17;;;2.00;;
29030;SDS011;16122;50.236;11.734;2022-08-21T03:31:35;1.90;;;1.80;;
29030;SDS011;16122;50.236;11.734;2022-08-21T03:34:01;2.47;;;2.27;;
29030;SDS011;16122;50.236;11.734;2022-08-21T03:36:27;2.73;;;2.03;;
29030;SDS011;16122;50.236;11.734;2022-08-21T03:38:54;2.33;;;2.13;;
29030;SDS011;16122;50.236;11.734;2022-08-21T03:41:20;2.27;;;2.13;;
29030;SDS011;16122;50.236;11.734;2022-08-21T03:43:46;2.33;;;2.13;;
29030;SDS011;16122;50.236;11.734;2022-08-21T03:46:11;2.27;;;2.10;;
29030;SDS011;16122;50.236;11.734;2022-08-21T03:48:38;2.40;;;2.20;;
29030;SDS011;16122;50.236;11.734;2022-08-21T03:51:04;2.53;;;2.20;;
29030;SDS011;16122;50.236;11.734;2022-08-21T03:53:31;2.67;;;2.47;;
29030;SDS011;16122;50.236;11.734;2022-08-21T03:55:58;2.40;;;2.20;;
29030;SDS011;16122;50.236;11.734;2022-08-21T03:58:25;1.83;;;1.73;;
29030;SDS011;16122;50.236;11.734;2022-08-21T04:00:54;2.70;;;2.50;;
29030;SDS011;16122;50.236;11.734;2022-08-21T04:03:22;2.50;;;2.30;;
29030;SDS011;16122;50.236;11.734;2022-08-21T04:05:49;2.50;;;2.40;;
29030;SDS011;16122;50.236;11.734;2022-08-21T04:08:16;2.47;;;2.27;;
29030;SDS011;16122;50.236;11.734;2022-08-21T04:10:44;3.27;;;2.50;;
29030;SDS011;16122;50.236;11.734;2022-08-21T04:13:13;2.20;;;2.07;;
29030;SDS011;16122;50.236;11.734;2022-08-21T04:15:40;2.60;;;2.40;;
29030;SDS011;16122;50.236;11.734;2022-08-21T04:18:06;2.13;;;2.03;;
29030;SDS011;16122;50.236;11.734;2022-08-21T04:20:33;4.30;;;2.00;;
29030;SDS011;16122;50.236;11.734;2022-08-21T04:23:00;2.63;;;2.43;;
29030;SDS011;16122;50.236;11.734;2022-08-21T04:25:27;3.20;;;3.00;;
29030;SDS011;16122;50.236;11.734;2022-08-21T04:27:53;2.03;;;1.90;;
29030;SDS011;16122;50.236;11.734;2022-08-21T04:30:20;2.20;;;2.10;;
29030;SDS011;16122;50.236;11.734;2022-08-21T04:32:47;2.50;;;2.30;;
29030;SDS011;16122;50.236;11.734;2022-08-21T04:35:16;2.30;;;2.10;;
29030;SDS011;16122;50.236;11.734;2022-08-21T04:37:44;2.43;;;2.23;;
29030;SDS011;16122;50.236;11.734;2022-08-21T04:40:10;2.90;;;2.70;;
29030;SDS011;16122;50.236;11.734;2022-08-21T04:42:45;3.00;;;2.33;;
29030;SDS011;16122;50.236;11.734;2022-08-21T04:45:17;1.90;;;1.80;;
29030;SDS011;16122;50.236;11.734;2022-08-21T04:47:50;2.43;;;2.23;;
29030;SDS011;16122;50.236;11.734;2022-08-21T04:50:18;2.63;;;2.43;;
29030;SDS011;16122;50.236;11.734;2022-08-21T04:53:02;2.40;;;2.30;;
29030;SDS011;16122;50.236;11.734;2022-08-21T04:55:29;3.57;;;2.60;;
29030;SDS011;16122;50.236;11.734;2022-08-21T04:57:55;2.77;;;2.20;;
29030;SDS011;16122;50.236;11.734;2022-08-21T05:00:22;3.57;;;2.30;;
29030;SDS011;16122;50.236;11.734;2022-08-21T05:02:49;2.77;;;2.57;;
29030;SDS011;16122;50.236;11.734;2022-08-21T05:05:22;2.37;;;2.17;;
29030;SDS011;16122;50.236;11.734;2022-08-21T05:07:48;2.47;;;2.27;;
29030;SDS011;16122;50.236;11.734;2022-08-21T05:10:15;2.90;;;2.70;;
29030;SDS011;16122;50.236;11.734;2022-08-21T05:12:41;4.03;;;2.60;;
29030;SDS011;16122;50.236;11.734;2022-08-21T05:15:09;2.67;;;2.47;;
29030;SDS011;16122;50.236;11.734;2022-08-21T05:17:37;3.53;;;2.80;;
29030;SDS011;16122;50.236;11.734;2022-08-21T05:20:03;3.80;;;2.83;;
29030;SDS011;16122;50.236;11.734;2022-08-21T05:22:29;3.70;;;2.43;;
29030;SDS011;16122;50.236;11.734;2022-08-21T05:24:56;2.43;;;2.23;;
29030;SDS011;16122;50.236;11.734;2022-08-21T05:27:23;2.43;;;2.23;;
29030;SDS011;16122;50.236;11.734;2022-08-21T05:29:49;2.83;;;2.63;;
29030;SDS011;16122;50.236;11.734;2022-08-21T05:32:15;2.50;;;2.30;;
29030;SDS011;16122;50.236;11.734;2022-08-21T05:34:41;2.63;;;2.43;;
29030;SDS011;16122;50.236;11.734;2022-08-21T05:37:07;2.73;;;2.53;;
29030;SDS011;16122;50.236;11.734;2022-08-21T05:39:35;2.73;;;2.53;;
29030;SDS011;16122;50.236;11.734;2022-08-21T05:42:01;3.00;;;2.80;;
29030;SDS011;16122;50.236;11.734;2022-08-21T05:44:27;3.47;;;2.73;;
29030;SDS011;16122;50.236;11.734;2022-08-21T05:46:53;2.83;;;2.53;;
29030;SDS011;16122;50.236;11.734;2022-08-21T05:49:19;3.23;;;2.93;;
29030;SDS011;16122;50.236;11.734;2022-08-21T05:51:45;2.97;;;2.70;;
29030;SDS011;16122;50.236;11.734;2022-08-21T05:54:10;3.13;;;2.83;;
29030;SDS011;16122;50.236;11.734;2022-08-21T05:56:36;3.03;;;2.83;;
29030;SDS011;16122;50.236;11.734;2022-08-21T05:59:02;2.93;;;2.73;;
29030;SDS011;16122;50.236;11.734;2022-08-21T06:01:28;3.57;;;3.00;;
29030;SDS011;16122;50.236;11.734;2022-08-21T06:03:54;2.97;;;2.77;;
29030;SDS011;16122;50.236;11.734;2022-08-21T06:06:20;2.70;;;2.50;;
29030;SDS011;16122;50.236;11.734;2022-08-21T06:08:45;2.33;;;2.20;;
29030;SDS011;16122;50.236;11.734;2022-08-21T06:11:11;3.10;;;2.87;;
29030;SDS011;16122;50.236;11.734;2022-08-21T06:13:37;3.17;;;2.97;;
29030;SDS011;16122;50.236;11.734;2022-08-21T06:16:05;3.97;;;3.47;;
29030;SDS011;16122;50.236;11.734;2022-08-21T06:18:39;2.93;;;2.73;;
29030;SDS011;16122;50.236;11.734;2022-08-21T06:21:05;2.97;;;2.60;;
29030;SDS011;16122;50.236;11.734;2022-08-21T06:23:32;4.10;;;3.17;;
29030;SDS011;16122;50.236;11.734;2022-08-21T06:26:00;4.40;;;3.33;;
29030;SDS011;16122;50.236;11.734;2022-08-21T06:28:28;3.40;;;3.10;;
29030;SDS011;16122;50.236;11.734;2022-08-21T06:30:54;3.70;;;3.40;;
29030;SDS011;16122;50.236;11.734;2022-08-21T06:33:20;4.30;;;3.60;;
29030;SDS011;16122;50.236;11.734;2022-08-21T06:35:46;4.10;;;3.70;;
29030;SDS011;16122;50.236;11.734;2022-08-21T06:38:12;3.70;;;3.40;;
29030;SDS011;16122;50.236;11.734;2022-08-21T06:40:38;3.50;;;3.20;;
29030;SDS011;16122;50.236;11.734;2022-08-21T06:43:08;3.60;;;3.30;;
29030;SDS011;16122;50.236;11.734;2022-08-21T06:45:36;4.20;;;3.80;;
29030;SDS011;16122;50.236;11.734;2022-08-21T06:48:02;4.00;;;3.60;;
29030;SDS011;16122;50.236;11.734;2022-08-21T06:50:29;8.27;;;3.33;;
29030;SDS011;16122;50.236;11.734;2022-08-21T06:53:06;5.83;;;4.17;;
29030;SDS011;16122;50.236;11.734;2022-08-21T06:55:35;4.47;;;4.07;;
29030;SDS011;16122;50.236;11.734;2022-08-21T06:58:01;4.20;;;3.80;;
29030;SDS011;16122;50.236;11.734;2022-08-21T07:00:29;4.83;;;4.33;;
29030;SDS011;16122;50.236;11.734;2022-08-21T07:02:55;6.17;;;4.17;;
29030;SDS011;16122;50.236;11.734;2022-08-21T07:05:22;4.30;;;3.90;;
29030;SDS011;16122;50.236;11.734;2022-08-21T07:07:51;5.60;;;4.03;;
29030;SDS011;16122;50.236;11.734;2022-08-21T07:10:17;4.40;;;4.00;;
29030;SDS011;16122;50.236;11.734;2022-08-21T07:12:43;5.63;;;4.50;;
29030;SDS011;16122;50.236;11.734;2022-08-21T07:15:09;5.07;;;4.57;;
29030;SDS011;16122;50.236;11.734;2022-08-21T07:17:35;4.17;;;3.70;;
29030;SDS011;16122;50.236;11.734;2022-08-21T07:20:01;5.23;;;3.87;;
29030;SDS011;16122;50.236;11.734;2022-08-21T07:22:28;33.47;;;23.20;;
29030;SDS011;16122;50.236;11.734;2022-08-21T07:24:55;37.43;;;25.60;;
29030;SDS011;16122;50.236;11.734;2022-08-21T07:27:21;36.70;;;26.60;;
29030;SDS011;16122;50.236;11.734;2022-08-21T07:29:47;43.23;;;30.80;;
29030;SDS011;16122;50.236;11.734;2022-08-21T07:32:13;36.93;;;27.00;;
29030;SDS011;16122;50.236;11.734;2022-08-21T07:34:40;36.63;;;25.20;;
29030;SDS011;16122;50.236;11.734;2022-08-21T07:37:06;38.27;;;26.83;;
29030;SDS011;16122;50.236;11.734;2022-08-21T07:39:32;34.27;;;25.67;;
29030;SDS011;16122;50.236;11.734;2022-08-21T07:41:58;39.47;;;26.90;;
29030;SDS011;16122;50.236;11.734;2022-08-21T07:44:24;27.53;;;21.87;;
29030;SDS011;16122;50.236;11.734;2022-08-21T07:46:50;28.87;;;22.73;;
29030;SDS011;16122;50.236;11.734;2022-08-21T07:49:16;28.57;;;21.23;;
29030;SDS011;16122;50.236;11.734;2022-08-21T07:51:42;32.17;;;20.90;;
29030;SDS011;16122;50.236;11.734;2022-08-21T07:54:08;28.80;;;21.20;;
29030;SDS011;16122;50.236;11.734;2022-08-21T07:56:34;28.50;;;20.53;;
29030;SDS011;16122;50.236;11.734;2022-08-21T07:59:00;28.80;;;20.73;;
29030;SDS011;16122;50.236;11.734;2022-08-21T08:01:27;25.47;;;19.30;;
29030;SDS011;16122;50.236;11.734;2022-08-21T08:03:54;26.27;;;19.73;;
29030;SDS011;16122;50.236;11.734;2022-08-21T08:06:21;21.57;;;18.70;;
29030;SDS011;16122;50.236;11.734;2022-08-21T08:08:48;21.17;;;16.87;;
29030;SDS011;16122;50.236;11.734;2022-08-21T08:11:14;18.00;;;14.77;;
29030;SDS011;16122;50.236;11.734;2022-08-21T08:13:41;19.70;;;15.83;;
29030;SDS011;16122;50.236;11.734;2022-08-21T08:16:09;22.57;;;18.53;;
29030;SDS011;16122;50.236;11.734;2022-08-21T08:18:34;19.03;;;15.57;;
29030;SDS011;16122;50.236;11.734;2022-08-21T08:21:01;22.50;;;15.53;;
29030;SDS011;16122;50.236;11.734;2022-08-21T08:23:27;19.43;;;15.17;;
29030;SDS011;16122;50.236;11.734;2022-08-21T08:25:55;19.70;;;16.20;;
29030;SDS011;16122;50.236;11.734;2022-08-21T08:28:22;19.80;;;16.03;;
29030;SDS011;16122;50.236;11.734;2022-08-21T08:30:47;20.40;;;15.43;;
29030;SDS011;16122;50.236;11.734;2022-08-21T08:33:14;15.60;;;13.90;;
29030;SDS011;16122;50.236;11.734;2022-08-21T08:35:45;14.97;;;12.97;;
29030;SDS011;16122;50.236;11.734;2022-08-21T08:38:13;16.53;;;13.70;;
29030;SDS011;16122;50.236;11.734;2022-08-21T08:40:47;14.47;;;12.97;;
29030;SDS011;16122;50.236;11.734;2022-08-21T08:43:21;15.80;;;12.80;;
29030;SDS011;16122;50.236;11.734;2022-08-21T08:45:48;14.53;;;12.23;;
29030;SDS011;16122;50.236;11.734;2022-08-21T08:49:06;15.47;;;12.23;;
29030;SDS011;16122;50.236;11.734;2022-08-21T08:51:25;12.90;;;11.03;;
29030;SDS011;16122;50.236;11.734;2022-08-21T08:53:59;15.80;;;12.10;;
29030;SDS011;16122;50.236;11.734;2022-08-21T08:56:31;14.37;;;12.30;;
29030;SDS011;16122;50.236;11.734;2022-08-21T08:59:00;14.97;;;12.60;;
29030;SDS011;16122;50.236;11.734;2022-08-21T09:01:39;13.80;;;12.30;;
29030;SDS011;16122;50.236;11.734;2022-08-21T09:04:05;12.63;;;11.30;;
29030;SDS011;16122;50.236;11.734;2022-08-21T09:29:19;10.43;;;8.80;;
29030;SDS011;16122;50.236;11.734;2022-08-21T09:31:49;12.00;;;9.87;;
29030;SDS011;16122;50.236;11.734;2022-08-21T09:34:23;10.83;;;9.73;;
29030;SDS011;16122;50.236;11.734;2022-08-21T09:36:50;12.07;;;9.73;;
29030;SDS011;16122;50.236;11.734;2022-08-21T09:41:55;15.93;;;9.20;;
29030;SDS011;16122;50.236;11.734;2022-08-21T09:44:26;10.23;;;9.20;;
29030;SDS011;16122;50.236;11.734;2022-08-21T09:46:54;9.20;;;8.13;;
29030;SDS011;16122;50.236;11.734;2022-08-21T09:49:27;13.40;;;8.73;;
29030;SDS011;16122;50.236;11.734;2022-08-21T09:51:54;10.00;;;8.43;;
29030;SDS011;16122;50.236;11.734;2022-08-21T09:54:20;10.23;;;8.70;;
29030;SDS011;16122;50.236;11.734;2022-08-21T09:57:11;9.40;;;8.50;;
29030;SDS011;16122;50.236;11.734;2022-08-21T10:05:50;10.63;;;9.00;;
29030;SDS011;16122;50.236;11.734;2022-08-21T10:08:19;10.67;;;9.33;;
29030;SDS011;16122;50.236;11.734;2022-08-21T10:10:49;8.53;;;7.10;;
29030;SDS011;16122;50.236;11.734;2022-08-21T10:13:21;9.70;;;8.70;;
29030;SDS011;16122;50.236;11.734;2022-08-21T10:15:57;9.53;;;8.30;;
29030;SDS011;16122;50.236;11.734;2022-08-21T10:21:10;10.17;;;8.57;;
29030;SDS011;16122;50.236;11.734;2022-08-21T10:49:31;8.23;;;7.33;;
29030;SDS011;16122;50.236;11.734;2022-08-21T11:00:13;7.47;;;6.77;;
29030;SDS011;16122;50.236;11.734;2022-08-21T11:05:37;8.27;;;7.47;;
29030;SDS011;16122;50.236;11.734;2022-08-21T11:08:23;6.73;;;6.13;;
29030;SDS011;16122;50.236;11.734;2022-08-21T11:11:00;8.70;;;7.20;;
29030;SDS011;16122;50.236;11.734;2022-08-21T11:13:41;7.93;;;7.13;;
29030;SDS011;16122;50.236;11.734;2022-08-21T11:16:41;7.77;;;6.97;;
29030;SDS011;16122;50.236;11.734;2022-08-21T11:25:29;6.77;;;6.10;;
29030;SDS011;16122;50.236;11.734;2022-08-21T11:28:11;8.40;;;7.30;;
29030;SDS011;16122;50.236;11.734;2022-08-21T11:36:45;7.30;;;6.60;;
29030;SDS011;16122;50.236;11.734;2022-08-21T11:39:34;7.20;;;6.50;;
29030;SDS011;16122;50.236;11.734;2022-08-21T11:42:15;7.03;;;6.33;;
29030;SDS011;16122;50.236;11.734;2022-08-21T11:47:40;6.80;;;6.10;;
29030;SDS011;16122;50.236;11.734;2022-08-21T11:50:16;7.07;;;6.30;;
29030;SDS011;16122;50.236;11.734;2022-08-21T11:52:49;8.23;;;6.67;;
29030;SDS011;16122;50.236;11.734;2022-08-21T11:55:19;10.50;;;7.10;;
29030;SDS011;16122;50.236;11.734;2022-08-21T11:57:56;7.10;;;6.40;;
29030;SDS011;16122;50.236;11.734;2022-08-21T12:03:07;9.10;;;6.40;;
29030;SDS011;16122;50.236;11.734;2022-08-21T12:05:58;10.57;;;6.30;;
29030;SDS011;16122;50.236;11.734;2022-08-21T12:16:36;8.93;;;6.73;;
29030;SDS011;16122;50.236;11.734;2022-08-21T12:19:08;10.80;;;6.67;;
29030;SDS011;16122;50.236;11.734;2022-08-21T12:22:00;9.70;;;6.10;;
29030;SDS011;16122;50.236;11.734;2022-08-21T12:24:39;8.77;;;7.03;;
29030;SDS011;16122;50.236;11.734;2022-08-21T12:29:47;7.37;;;6.50;;
29030;SDS011;16122;50.236;11.734;2022-08-21T12:32:28;8.20;;;6.40;;
29030;SDS011;16122;50.236;11.734;2022-08-21T12:35:14;9.17;;;7.23;;
29030;SDS011;16122;50.236;11.734;2022-08-21T12:37:52;7.70;;;6.27;;
29030;SDS011;16122;50.236;11.734;2022-08-21T12:40:50;9.93;;;7.20;;
29030;SDS011;16122;50.236;11.734;2022-08-21T12:43:21;8.63;;;6.00;;
29030;SDS011;16122;50.236;11.734;2022-08-21T12:45:50;7.03;;;6.17;;
29030;SDS011;16122;50.236;11.734;2022-08-21T12:51:12;9.33;;;6.90;;
29030;SDS011;16122;50.236;11.734;2022-08-21T12:53:51;9.17;;;6.00;;
29030;SDS011;16122;50.236;11.734;2022-08-21T12:56:20;9.13;;;6.53;;
29030;SDS011;16122;50.236;11.734;2022-08-21T12:58:50;7.00;;;5.90;;
29030;SDS011;16122;50.236;11.734;2022-08-21T13:04:02;9.33;;;6.70;;
29030;SDS011;16122;50.236;11.734;2022-08-21T13:06:37;8.00;;;6.27;;
29030;SDS011;16122;50.236;11.734;2022-08-21T13:09:11;9.43;;;7.27;;
29030;SDS011;16122;50.236;11.734;2022-08-21T13:11:42;8.80;;;7.00;;
29030;SDS011;16122;50.236;11.734;2022-08-21T13:14:14;11.93;;;7.00;;
29030;SDS011;16122;50.236;11.734;2022-08-21T13:16:55;11.97;;;7.23;;
29030;SDS011;16122;50.236;11.734;2022-08-21T13:19:23;10.13;;;6.27;;
29030;SDS011;16122;50.236;11.734;2022-08-21T13:21:50;9.80;;;6.83;;
29030;SDS011;16122;50.236;11.734;2022-08-21T13:26:49;12.27;;;7.13;;
29030;SDS011;16122;50.236;11.734;2022-08-21T13:29:18;10.57;;;6.53;;
29030;SDS011;16122;50.236;11.734;2022-08-21T13:31:51;10.53;;;6.40;;
29030;SDS011;16122;50.236;11.734;2022-08-21T13:34:22;11.10;;;7.27;;
29030;SDS011;16122;50.236;11.734;2022-08-21T13:36:51;10.30;;;7.20;;
29030;SDS011;16122;50.236;11.734;2022-08-21T13:39:19;10.63;;;6.53;;
29030;SDS011;16122;50.236;11.734;2022-08-21T13:41:48;9.47;;;6.97;;
29030;SDS011;16122;50.236;11.734;2022-08-21T13:46:43;10.40;;;6.57;;
29030;SDS011;16122;50.236;11.734;2022-08-21T13:49:10;10.70;;;6.20;;
29030;SDS011;16122;50.236;11.734;2022-08-21T13:51:40;11.27;;;6.90;;
29030;SDS011;16122;50.236;11.734;2022-08-21T13:54:20;7.90;;;6.47;;
29030;SDS011;16122;50.236;11.734;2022-08-21T13:56:50;8.17;;;6.53;;
29030;SDS011;16122;50.236;11.734;2022-08-21T13:59:29;7.13;;;6.40;;
29030;SDS011;16122;50.236;11.734;2022-08-21T14:01:59;7.97;;;5.90;;
29030;SDS011;16122;50.236;11.734;2022-08-21T14:04:47;8.23;;;5.87;;
29030;SDS011;16122;50.236;11.734;2022-08-21T14:07:24;7.27;;;5.90;;
29030;SDS011;16122;50.236;11.734;2022-08-21T14:09:51;6.53;;;5.60;;
29030;SDS011;16122;50.236;11.734;2022-08-21T14:12:24;9.67;;;6.70;;
29030;SDS011;16122;50.236;11.734;2022-08-21T14:14:55;9.17;;;5.80;;
29030;SDS011;16122;50.236;11.734;2022-08-21T14:17:33;11.53;;;6.40;;
29030;SDS011;16122;50.236;11.734;2022-08-21T14:20:02;6.07;;;5.47;;
29030;SDS011;16122;50.236;11.734;2022-08-21T14:22:41;7.47;;;6.13;;
29030;SDS011;16122;50.236;11.734;2022-08-21T14:25:12;7.47;;;6.63;;
29030;SDS011;16122;50.236;11.734;2022-08-21T14:30:19;7.17;;;5.87;;
29030;SDS011;16122;50.236;11.734;2022-08-21T14:32:52;8.83;;;6.30;;
29030;SDS011;16122;50.236;11.734;2022-08-21T14:35:19;7.33;;;6.40;;
29030;SDS011;16122;50.236;11.734;2022-08-21T14:37:47;6.60;;;6.00;;
29030;SDS011;16122;50.236;11.734;2022-08-21T14:40:17;6.90;;;6.20;;
29030;SDS011;16122;50.236;11.734;2022-08-21T14:42:44;6.40;;;5.80;;
29030;SDS011;16122;50.236;11.734;2022-08-21T14:47:42;6.20;;;5.53;;
29030;SDS011;16122;50.236;11.734;2022-08-21T14:50:09;6.97;;;5.60;;
29030;SDS011;16122;50.236;11.734;2022-08-21T14:52:35;6.90;;;6.30;;
29030;SDS011;16122;50.236;11.734;2022-08-21T14:55:03;5.87;;;5.27;;
29030;SDS011;16122;50.236;11.734;2022-08-21T14:57:30;6.27;;;5.67;;
29030;SDS011;16122;50.236;11.734;2022-08-21T14:59:57;7.50;;;5.90;;
29030;SDS011;16122;50.236;11.734;2022-08-21T15:02:24;5.97;;;5.37;;
29030;SDS011;16122;50.236;11.734;2022-08-21T15:04:50;6.33;;;5.73;;
29030;SDS011;16122;50.236;11.734;2022-08-21T15:07:17;8.03;;;5.70;;
29030;SDS011;16122;50.236;11.734;2022-08-21T15:09:43;5.90;;;5.40;;
29030;SDS011;16122;50.236;11.734;2022-08-21T15:12:09;6.50;;;5.20;;
29030;SDS011;16122;50.236;11.734;2022-08-21T15:14:39;7.33;;;6.30;;
29030;SDS011;16122;50.236;11.734;2022-08-21T15:17:06;6.30;;;5.57;;
29030;SDS011;16122;50.236;11.734;2022-08-21T15:19:34;5.63;;;5.03;;
29030;SDS011;16122;50.236;11.734;2022-08-21T15:22:00;7.20;;;5.40;;
29030;SDS011;16122;50.236;11.734;2022-08-21T15:24:26;6.60;;;5.93;;
29030;SDS011;16122;50.236;11.734;2022-08-21T15:26:52;5.97;;;5.43;;
29030;SDS011;16122;50.236;11.734;2022-08-21T15:29:19;6.93;;;6.00;;
29030;SDS011;16122;50.236;11.734;2022-08-21T15:31:56;5.87;;;5.27;;
29030;SDS011;16122;50.236;11.734;2022-08-21T15:34:25;6.37;;;5.70;;
29030;SDS011;16122;50.236;11.734;2022-08-21T15:36:52;7.10;;;5.97;;
29030;SDS011;16122;50.236;11.734;2022-08-21T15:39:19;6.10;;;5.50;;
29030;SDS011;16122;50.236;11.734;2022-08-21T15:41:45;6.10;;;5.50;;
29030;SDS011;16122;50.236;11.734;2022-08-21T15:44:12;10.13;;;5.60;;
29030;SDS011;16122;50.236;11.734;2022-08-21T15:46:39;7.03;;;6.13;;
29030;SDS011;16122;50.236;11.734;2022-08-21T15:49:05;6.30;;;5.80;;
29030;SDS011;16122;50.236;11.734;2022-08-21T15:51:32;6.20;;;5.60;;
29030;SDS011;16122;50.236;11.734;2022-08-21T15:53:58;6.27;;;5.77;;
29030;SDS011;16122;50.236;11.734;2022-08-21T15:56:25;7.23;;;6.53;;
29030;SDS011;16122;50.236;11.734;2022-08-21T15:58:57;7.37;;;6.30;;
29030;SDS011;16122;50.236;11.734;2022-08-21T16:01:25;6.47;;;5.87;;
29030;SDS011;16122;50.236;11.734;2022-08-21T16:03:52;7.17;;;5.70;;
29030;SDS011;16122;50.236;11.734;2022-08-21T16:06:19;7.27;;;6.57;;
29030;SDS011;16122;50.236;11.734;2022-08-21T16:08:45;6.03;;;5.43;;
29030;SDS011;16122;50.236;11.734;2022-08-21T16:11:11;6.90;;;6.03;;
29030;SDS011;16122;50.236;11.734;2022-08-21T16:13:39;6.30;;;5.80;;
29030;SDS011;16122;50.236;11.734;2022-08-21T16:16:10;6.63;;;5.80;;
29030;SDS011;16122;50.236;11.734;2022-08-21T16:18:39;6.60;;;5.90;;
29030;SDS011;16122;50.236;11.734;2022-08-21T16:21:05;5.70;;;5.20;;
29030;SDS011;16122;50.236;11.734;2022-08-21T16:23:32;5.87;;;5.37;;
29030;SDS011;16122;50.236;11.734;2022-08-21T16:26:00;6.60;;;6.00;;
29030;SDS011;16122;50.236;11.734;2022-08-21T16:28:30;5.63;;;5.13;;
29030;SDS011;16122;50.236;11.734;2022-08-21T16:30:58;6.00;;;5.50;;
29030;SDS011;16122;50.236;11.734;2022-08-21T16:33:29;6.40;;;5.80;;
29030;SDS011;16122;50.236;11.734;2022-08-21T16:36:03;8.50;;;5.77;;
29030;SDS011;16122;50.236;11.734;2022-08-21T16:38:30;7.10;;;6.00;;
29030;SDS011;16122;50.236;11.734;2022-08-21T16:40:57;6.77;;;6.10;;